Time;durP1;ratioP1;P1;durP2;ratioP2;P2;SDS_P1;SDS_P2;PMS_P1;PMS_P2;Temp;Humidity;BMP_temperature;BMP_pressure;BME280_temperature;BME280_humidity;BME280_pressure;Samples;Min_cycle;Max_cycle;Signal;HPM_P1;HPM_P2
2022/09/07 00:00:54;;;;;;;6.47;1.70;;;23.40;64.60;;;;;;4983921;28;20534;-63
2022/09/07 00:03:20;;;;;;;8.55;1.80;;;23.40;64.60;;;;;;4985199;28;20116;-63
2022/09/07 00:05:47;;;;;;;9.15;1.88;;;23.40;64.60;;;;;;4984053;28;20121;-63
2022/09/07 00:08:13;;;;;;;8.35;1.90;;;23.40;64.70;;;;;;4985435;28;20038;-63
2022/09/07 00:10:39;;;;;;;7.20;1.88;;;23.40;64.70;;;;;;4985203;28;20057;-63
2022/09/07 00:13:05;;;;;;;7.85;2.00;;;23.40;64.70;;;;;;4984200;28;20403;-62
2022/09/07 00:15:30;;;;;;;5.13;1.65;;;23.40;64.70;;;;;;4986496;28;20023;-63
2022/09/07 00:17:56;;;;;;;5.85;1.85;;;23.40;64.70;;;;;;4987516;28;20034;-63
2022/09/07 00:20:22;;;;;;;7.13;1.85;;;23.40;64.70;;;;;;4983537;28;20084;-64
2022/09/07 00:22:47;;;;;;;5.55;1.83;;;23.40;64.80;;;;;;4984764;28;20110;-63
2022/09/07 00:25:13;;;;;;;6.85;1.60;;;23.40;64.80;;;;;;4986763;28;20073;-63
2022/09/07 00:27:39;;;;;;;6.38;1.80;;;23.30;64.70;;;;;;4984461;28;20101;-63
2022/09/07 00:30:05;;;;;;;6.13;1.65;;;23.40;64.80;;;;;;4987205;28;20041;-63
2022/09/07 00:32:30;;;;;;;5.95;1.67;;;23.30;64.80;;;;;;4985421;28;20084;-63
2022/09/07 00:34:56;;;;;;;6.53;1.67;;;23.30;64.80;;;;;;4984105;28;20719;-63
2022/09/07 00:37:22;;;;;;;6.97;1.88;;;23.30;64.80;;;;;;4986444;28;20652;-63
2022/09/07 00:39:48;;;;;;;6.90;1.90;;;23.30;64.80;;;;;;4984399;28;20541;-63
2022/09/07 00:42:17;;;;;;;6.35;1.70;;;23.30;64.90;;;;;;4984732;28;20034;-63
2022/09/07 00:44:42;;;;;;;6.25;1.63;;;23.30;64.80;;;;;;4982255;28;20108;-62
2022/09/07 00:47:31;;;;;;;5.55;1.65;;;23.30;64.80;;;;;;4984368;28;20090;-63
2022/09/07 00:50:08;;;;;;;5.45;1.38;;;23.30;64.80;;;;;;4975751;28;20047;-63
2022/09/07 00:52:34;;;;;;;5.72;1.90;;;23.30;64.80;;;;;;4974278;28;20049;-63
2022/09/07 00:55:02;;;;;;;7.15;2.00;;;23.30;65.90;;;;;;4968587;28;20038;-63
2022/09/07 00:57:28;;;;;;;7.63;1.92;;;23.30;64.90;;;;;;4967157;28;20066;-63
2022/09/07 00:59:53;;;;;;;6.93;1.80;;;23.30;64.90;;;;;;4963121;28;20066;-63
2022/09/07 01:02:19;;;;;;;7.18;1.80;;;23.30;64.90;;;;;;4965107;28;20058;-63
2022/09/07 01:04:47;;;;;;;6.70;1.67;;;23.20;64.90;;;;;;4967148;28;20027;-63
2022/09/07 01:07:12;;;;;;;4.32;1.42;;;23.20;64.90;;;;;;4966765;28;20046;-63
2022/09/07 01:09:38;;;;;;;7.35;2.33;;;23.20;64.90;;;;;;4980878;28;20053;-63
2022/09/07 01:12:04;;;;;;;4.80;1.73;;;23.20;64.90;;;;;;4962966;28;20023;-63
2022/09/07 01:14:33;;;;;;;7.03;1.95;;;23.20;64.90;;;;;;4963738;28;20129;-62
2022/09/07 01:17:22;;;;;;;6.72;1.90;;;23.20;64.90;;;;;;4983127;28;20041;-63
2022/09/07 01:19:57;;;;;;;4.90;1.70;;;23.20;64.90;;;;;;4971144;28;20039;-63
2022/09/07 01:22:35;;;;;;;5.80;1.83;;;23.20;65.00;;;;;;4980157;28;20197;-63
2022/09/07 01:25:15;;;;;;;7.07;1.90;;;23.20;65.00;;;;;;4980519;28;20069;-62
2022/09/07 01:27:53;;;;;;;6.03;1.73;;;23.20;65.00;;;;;;4986514;28;20514;-63
2022/09/07 01:30:19;;;;;;;5.72;1.60;;;23.20;65.00;;;;;;4983982;28;20037;-63
2022/09/07 01:32:57;;;;;;;5.82;1.50;;;23.20;65.00;;;;;;4996782;28;20053;-63
2022/09/07 01:35:34;;;;;;;5.50;1.48;;;23.20;65.00;;;;;;4996850;28;20027;-63
2022/09/07 01:38:16;;;;;;;5.70;1.48;;;23.20;65.00;;;;;;4986106;28;20105;-63
2022/09/07 01:40:45;;;;;;;5.82;1.38;;;23.20;65.10;;;;;;4997026;28;20109;-63
2022/09/07 01:43:14;;;;;;;5.88;1.58;;;23.20;65.10;;;;;;4986899;28;20057;-63
2022/09/07 01:45:40;;;;;;;5.80;1.83;;;23.20;65.10;;;;;;4998817;28;20053;-63
2022/09/07 01:48:07;;;;;;;5.20;1.65;;;23.20;65.10;;;;;;4984824;28;20112;-63
2022/09/07 01:51:05;;;;;;;7.40;1.77;;;23.10;65.10;;;;;;4999969;28;20117;-63
2022/09/07 01:53:39;;;;;;;5.97;1.73;;;23.10;65.20;;;;;;4982500;28;20482;-63
2022/09/07 01:56:12;;;;;;;4.85;1.40;;;23.10;65.10;;;;;;4967663;28;20062;-63
2022/09/07 01:58:46;;;;;;;5.63;1.52;;;23.10;65.10;;;;;;4951651;28;20056;-63
2022/09/07 02:01:15;;;;;;;7.35;1.75;;;23.10;65.20;;;;;;4968382;28;20104;-63
2022/09/07 02:03:56;;;;;;;5.05;1.50;;;23.10;65.20;;;;;;4956402;28;20065;-63
2022/09/07 02:06:30;;;;;;;8.57;1.63;;;23.10;65.20;;;;;;4968511;28;20113;-63
2022/09/07 02:08:59;;;;;;;5.88;1.80;;;23.10;65.20;;;;;;4969262;28;20527;-63
2022/09/07 02:11:43;;;;;;;6.05;1.70;;;23.10;65.20;;;;;;4978671;28;20069;-63
2022/09/07 02:14:10;;;;;;;5.97;1.60;;;23.10;65.30;;;;;;4967619;28;20674;-63
2022/09/07 02:16:40;;;;;;;3.95;1.40;;;23.10;65.20;;;;;;4980768;28;20031;-63
2022/09/07 02:19:09;;;;;;;5.53;1.65;;;23.10;65.20;;;;;;4971485;28;20030;-63
2022/09/07 02:21:42;;;;;;;5.43;1.50;;;23.10;65.20;;;;;;4955334;28;20538;-63
2022/09/07 02:24:14;;;;;;;5.75;1.73;;;23.10;65.30;;;;;;4978722;28;20170;-63
2022/09/07 02:26:39;;;;;;;5.18;1.60;;;23.10;65.20;;;;;;4969932;28;20031;-63
2022/09/07 02:29:06;;;;;;;5.97;1.60;;;23.10;65.30;;;;;;4975825;28;20047;-63
2022/09/07 02:31:31;;;;;;;5.18;1.50;;;23.00;65.20;;;;;;4985266;28;20534;-63
2022/09/07 02:33:58;;;;;;;5.60;1.70;;;23.00;65.20;;;;;;4985762;28;20114;-63
2022/09/07 02:36:25;;;;;;;7.57;1.70;;;23.10;65.30;;;;;;4977390;28;20035;-63
2022/09/07 02:38:51;;;;;;;4.95;1.48;;;23.10;65.30;;;;;;4983629;28;20565;-63
2022/09/07 02:41:36;;;;;;;5.68;1.48;;;23.00;65.30;;;;;;4987670;28;20022;-63
2022/09/07 02:44:04;;;;;;;4.63;1.75;;;23.00;65.30;;;;;;4987512;28;20396;-63
2022/09/07 02:46:35;;;;;;;5.10;1.40;;;23.10;65.40;;;;;;4999078;28;20037;-63
2022/09/07 02:49:08;;;;;;;5.25;1.50;;;23.00;65.40;;;;;;4988530;28;20458;-63
2022/09/07 02:52:10;;;;;;;5.65;1.70;;;23.00;65.30;;;;;;4995018;28;20038;-63
2022/09/07 02:54:36;;;;;;;6.22;1.52;;;23.00;65.30;;;;;;4995438;28;20681;-63
2022/09/07 02:57:23;;;;;;;4.93;1.60;;;23.00;65.30;;;;;;4986160;28;20026;-63
2022/09/07 03:00:06;;;;;;;5.72;1.50;;;23.00;65.40;;;;;;4984486;28;20052;-63
2022/09/07 03:03:07;;;;;;;5.15;1.85;;;23.00;65.40;;;;;;4997374;28;20367;-63
2022/09/07 03:05:36;;;;;;;4.43;1.50;;;23.00;65.40;;;;;;5015724;28;20463;-63
2022/09/07 03:08:10;;;;;;;4.05;1.60;;;23.00;65.40;;;;;;4987197;28;20070;-63
2022/09/07 03:10:37;;;;;;;7.27;1.47;;;23.00;65.50;;;;;;4972959;28;20023;-63
2022/09/07 03:13:03;;;;;;;4.97;1.50;;;23.00;65.40;;;;;;4976227;28;20269;-63
2022/09/07 03:15:29;;;;;;;4.53;1.35;;;23.00;65.50;;;;;;4997662;28;20888;-63
2022/09/07 03:17:54;;;;;;;5.35;1.55;;;23.00;65.50;;;;;;4985241;28;20038;-63
2022/09/07 03:20:20;;;;;;;4.70;1.40;;;23.00;65.50;;;;;;4985314;28;20034;-63
2022/09/07 03:22:47;;;;;;;5.43;1.40;;;22.90;65.40;;;;;;4984610;28;20022;-63
2022/09/07 03:25:13;;;;;;;4.85;1.60;;;22.90;65.40;;;;;;4986370;28;20072;-63
2022/09/07 03:27:38;;;;;;;4.75;1.50;;;22.90;65.40;;;;;;4987408;28;20124;-63
2022/09/07 03:30:05;;;;;;;4.40;1.40;;;22.90;65.50;;;;;;4987784;28;20033;-63
2022/09/07 03:32:32;;;;;;;3.83;1.33;;;23.00;65.60;;;;;;4985735;28;20498;-63
2022/09/07 03:34:58;;;;;;;5.28;1.40;;;22.90;66.50;;;;;;4988123;28;20030;-63
2022/09/07 03:37:24;;;;;;;6.13;1.88;;;22.90;65.50;;;;;;4987125;28;20040;-63
2022/09/07 03:39:49;;;;;;;4.85;1.50;;;22.90;65.50;;;;;;4984147;28;20110;-63
2022/09/07 03:42:15;;;;;;;5.80;1.50;;;22.90;65.50;;;;;;4984693;28;20117;-63
2022/09/07 03:44:41;;;;;;;6.32;1.90;;;22.90;65.50;;;;;;4984721;28;20100;-63
2022/09/07 03:47:06;;;;;;;5.30;1.40;;;22.90;65.50;;;;;;4986793;28;20487;-63
2022/09/07 03:49:32;;;;;;;4.63;1.35;;;22.90;65.50;;;;;;4984338;28;20380;-63
2022/09/07 03:51:58;;;;;;;6.68;1.70;;;22.90;65.50;;;;;;4985537;28;20022;-63
2022/09/07 03:54:24;;;;;;;5.32;1.60;;;22.90;65.50;;;;;;4986413;28;20045;-63
2022/09/07 03:56:49;;;;;;;6.45;1.60;;;22.90;65.50;;;;;;4983142;28;20026;-63
2022/09/07 03:59:15;;;;;;;5.03;1.50;;;22.90;65.50;;;;;;4985394;28;20096;-63
2022/09/07 04:01:41;;;;;;;5.38;1.60;;;22.90;65.50;;;;;;4984573;28;20026;-63
2022/09/07 04:04:06;;;;;;;5.40;1.60;;;22.80;65.50;;;;;;4985994;28;20037;-63
2022/09/07 04:06:32;;;;;;;4.35;1.30;;;22.80;65.50;;;;;;4986944;28;20018;-63
2022/09/07 04:09:05;;;;;;;3.80;1.30;;;22.80;65.50;;;;;;4985493;28;20050;-63
2022/09/07 04:11:31;;;;;;;4.30;1.33;;;22.80;65.50;;;;;;4984529;28;20018;-63
2022/09/07 04:13:56;;;;;;;4.72;1.23;;;22.80;65.50;;;;;;4987334;28;20038;-63
2022/09/07 04:16:23;;;;;;;4.63;1.30;;;22.80;65.60;;;;;;4982028;28;20435;-63
2022/09/07 04:18:49;;;;;;;4.85;1.45;;;22.80;65.50;;;;;;4983548;28;20229;-62
2022/09/07 04:21:19;;;;;;;7.57;1.50;;;22.80;65.60;;;;;;4985720;28;20395;-63
2022/09/07 04:23:44;;;;;;;5.10;1.45;;;22.80;65.60;;;;;;4995689;28;20046;-63
2022/09/07 04:26:24;;;;;;;5.13;1.40;;;22.80;65.50;;;;;;4984665;28;20100;-63
2022/09/07 04:28:50;;;;;;;3.70;1.38;;;22.80;65.50;;;;;;4981290;28;20042;-63
2022/09/07 04:31:16;;;;;;;5.85;1.58;;;22.80;65.50;;;;;;4986005;28;20052;-63
2022/09/07 04:33:43;;;;;;;3.67;1.10;;;22.80;65.60;;;;;;4981312;28;20022;-63
2022/09/07 04:36:08;;;;;;;6.40;1.35;;;22.80;65.60;;;;;;4986002;28;20161;-63
2022/09/07 04:38:34;;;;;;;5.20;1.58;;;22.80;65.60;;;;;;4984375;28;20097;-63
2022/09/07 04:41:08;;;;;;;3.55;1.25;;;22.80;65.60;;;;;;4984103;28;20054;-63
2022/09/07 04:43:35;;;;;;;3.55;1.33;;;22.70;65.50;;;;;;4983234;28;20026;-63
2022/09/07 04:46:02;;;;;;;4.40;1.45;;;22.80;65.60;;;;;;4987745;28;20034;-63
2022/09/07 04:48:28;;;;;;;4.18;1.40;;;22.70;65.60;;;;;;4993697;28;20029;-63
2022/09/07 04:50:53;;;;;;;3.53;1.35;;;22.80;65.60;;;;;;4979158;28;20035;-63
2022/09/07 04:53:19;;;;;;;4.40;1.30;;;22.70;65.60;;;;;;4984466;28;20374;-63
2022/09/07 04:55:45;;;;;;;4.32;1.60;;;22.70;65.60;;;;;;4984289;28;20033;-63
2022/09/07 04:58:10;;;;;;;4.63;1.30;;;22.70;65.60;;;;;;4983449;28;20092;-63
2022/09/07 05:00:38;;;;;;;3.70;1.30;;;22.70;65.50;;;;;;4984782;28;20105;-63
2022/09/07 05:03:04;;;;;;;3.83;1.30;;;22.70;65.50;;;;;;4982561;28;20034;-63
2022/09/07 05:05:30;;;;;;;4.43;1.50;;;22.70;65.60;;;;;;4982047;28;20030;-63
2022/09/07 05:07:55;;;;;;;6.15;1.30;;;22.70;65.60;;;;;;4987220;28;20109;-63
2022/09/07 05:10:21;;;;;;;6.22;1.60;;;22.70;65.60;;;;;;4988152;28;20038;-64
2022/09/07 05:12:47;;;;;;;4.80;1.20;;;22.70;65.50;;;;;;4988191;28;20479;-63
2022/09/07 05:15:12;;;;;;;5.20;1.60;;;22.70;65.60;;;;;;4987222;28;20380;-63
2022/09/07 05:17:38;;;;;;;6.72;1.60;;;22.80;65.70;;;;;;4994255;28;20378;-64
2022/09/07 05:20:04;;;;;;;4.13;1.42;;;22.80;65.80;;;;;;4989421;28;20110;-63
2022/09/07 05:22:30;;;;;;;4.97;1.20;;;22.70;65.70;;;;;;4987496;28;20057;-63
2022/09/07 05:24:55;;;;;;;6.75;1.55;;;22.80;65.80;;;;;;4989566;28;20140;-63
2022/09/07 05:27:23;;;;;;;5.97;1.63;;;22.80;65.60;;;;;;4983393;28;20082;-62
2022/09/07 05:29:49;;;;;;;5.13;1.33;;;22.80;65.90;;;;;;4987281;28;20715;-62
2022/09/07 05:32:14;;;;;;;8.40;1.70;;;22.80;65.80;;;;;;4985653;28;20109;-62
2022/09/07 05:34:40;;;;;;;6.72;1.52;;;22.80;65.80;;;;;;4987620;28;20487;-62
2022/09/07 05:37:06;;;;;;;7.32;1.45;;;22.80;66.00;;;;;;4990556;28;20513;-62
2022/09/07 05:39:32;;;;;;;6.95;1.58;;;22.90;66.10;;;;;;4988025;28;20059;-62
2022/09/07 05:41:58;;;;;;;7.35;1.50;;;22.80;66.00;;;;;;4988309;28;20118;-62
2022/09/07 05:44:24;;;;;;;5.88;1.50;;;22.80;66.20;;;;;;4986313;28;20503;-62
2022/09/07 05:46:51;;;;;;;6.65;1.60;;;22.80;65.90;;;;;;4987953;28;20029;-63
2022/09/07 05:49:16;;;;;;;5.82;1.42;;;22.80;66.10;;;;;;4986104;28;20038;-63
2022/09/07 05:51:42;;;;;;;5.00;1.63;;;22.80;66.00;;;;;;4987946;28;20038;-63
2022/09/07 05:54:09;;;;;;;5.55;1.38;;;22.80;66.20;;;;;;4986470;28;20045;-63
2022/09/07 05:56:35;;;;;;;8.68;1.50;;;22.80;66.10;;;;;;4986929;28;20411;-63
2022/09/07 05:59:01;;;;;;;6.10;1.50;;;22.80;66.20;;;;;;4988228;28;20038;-63
2022/09/07 06:01:26;;;;;;;6.88;1.75;;;22.80;66.30;;;;;;4986749;28;20524;-63
2022/09/07 06:03:52;;;;;;;5.78;1.50;;;22.80;66.30;;;;;;4986438;28;20022;-63
2022/09/07 06:06:18;;;;;;;6.55;1.55;;;22.80;66.30;;;;;;4988859;28;20147;-63
2022/09/07 06:08:45;;;;;;;3.30;1.27;;;22.80;66.30;;;;;;4987398;28;20038;-63
2022/09/07 06:11:13;;;;;;;4.95;1.48;;;22.80;66.30;;;;;;4987387;28;20038;-62
2022/09/07 06:13:41;;;;;;;7.32;1.70;;;22.80;66.30;;;;;;4985421;28;20125;-63
2022/09/07 06:16:08;;;;;;;7.13;1.73;;;22.80;66.20;;;;;;4988822;28;20103;-62
2022/09/07 06:18:41;;;;;;;4.32;1.42;;;22.80;66.30;;;;;;4987400;28;20036;-63
2022/09/07 06:21:07;;;;;;;4.88;1.40;;;22.80;66.30;;;;;;4986267;28;20061;-63
2022/09/07 06:23:33;;;;;;;5.82;1.70;;;22.70;66.20;;;;;;4986066;28;20128;-63
2022/09/07 06:25:59;;;;;;;5.38;1.38;;;22.70;66.20;;;;;;4986853;28;20073;-63
2022/09/07 06:28:29;;;;;;;4.50;1.38;;;22.70;66.20;;;;;;4986808;28;20049;-63
2022/09/07 06:31:07;;;;;;;7.38;1.65;;;22.70;66.20;;;;;;4984777;28;20565;-63
2022/09/07 06:33:33;;;;;;;6.50;1.60;;;22.70;66.30;;;;;;4985827;28;20030;-63
2022/09/07 06:36:00;;;;;;;6.90;1.65;;;22.70;66.20;;;;;;4987498;28;20042;-63
2022/09/07 06:38:29;;;;;;;7.38;1.70;;;22.70;66.20;;;;;;4987055;28;20033;-63
2022/09/07 06:41:02;;;;;;;5.47;1.50;;;22.70;66.10;;;;;;4984731;28;20056;-63
2022/09/07 06:43:28;;;;;;;8.10;1.65;;;22.70;66.20;;;;;;4986195;28;20621;-63
2022/09/07 06:45:53;;;;;;;4.63;1.50;;;22.70;66.10;;;;;;4985977;28;20029;-63
2022/09/07 06:48:20;;;;;;;4.40;1.27;;;22.70;66.10;;;;;;4986523;28;20035;-63
2022/09/07 06:50:56;;;;;;;5.07;1.55;;;22.80;66.20;;;;;;4985942;28;20026;-63
2022/09/07 06:53:22;;;;;;;5.82;1.42;;;22.70;66.10;;;;;;4985919;28;20031;-63
2022/09/07 06:55:47;;;;;;;7.55;1.60;;;22.70;66.10;;;;;;4985827;28;20561;-63
2022/09/07 06:58:13;;;;;;;6.22;1.48;;;22.70;66.10;;;;;;4987641;28;20038;-62
2022/09/07 07:00:39;;;;;;;5.90;1.45;;;22.70;66.10;;;;;;4986982;28;20050;-62
2022/09/07 07:03:04;;;;;;;5.90;1.65;;;22.70;66.10;;;;;;4988105;28;20510;-62
2022/09/07 07:05:30;;;;;;;6.93;1.60;;;22.70;66.10;;;;;;4986991;28;20030;-62
2022/09/07 07:07:56;;;;;;;6.07;1.50;;;22.70;66.10;;;;;;4984570;28;20027;-62
2022/09/07 07:10:22;;;;;;;4.93;1.40;;;22.70;66.00;;;;;;4987369;28;20034;-62
2022/09/07 07:12:48;;;;;;;4.18;1.40;;;22.70;66.00;;;;;;4987113;28;20395;-62
2022/09/07 07:15:14;;;;;;;5.82;1.35;;;22.70;66.00;;;;;;4987069;28;20019;-62
2022/09/07 07:17:39;;;;;;;5.68;1.55;;;22.70;66.00;;;;;;4986146;28;20630;-63
2022/09/07 07:20:06;;;;;;;8.43;1.80;;;22.70;66.00;;;;;;4987813;28;20030;-63
2022/09/07 07:22:32;;;;;;;5.40;1.55;;;22.60;65.90;;;;;;4986056;28;20019;-62
2022/09/07 07:24:58;;;;;;;7.25;1.50;;;22.70;66.00;;;;;;4986064;28;20527;-62
2022/09/07 07:27:23;;;;;;;5.07;1.50;;;22.70;66.00;;;;;;4985664;28;20034;-63
2022/09/07 07:29:51;;;;;;;7.30;1.70;;;22.70;66.00;;;;;;4985147;28;20046;-63
2022/09/07 07:32:16;;;;;;;6.63;1.50;;;22.60;66.00;;;;;;4986221;28;20029;-62
2022/09/07 07:34:42;;;;;;;5.53;1.40;;;22.70;65.90;;;;;;4985324;28;20436;-62
2022/09/07 07:37:08;;;;;;;5.13;1.25;;;22.70;65.90;;;;;;4986739;28;20108;-63
2022/09/07 07:39:34;;;;;;;6.25;1.30;;;22.70;66.00;;;;;;4983175;28;20038;-63
2022/09/07 07:41:59;;;;;;;7.22;1.58;;;22.60;65.80;;;;;;4983781;28;20019;-62
2022/09/07 07:44:25;;;;;;;6.97;1.30;;;22.60;65.90;;;;;;4985439;28;20045;-63
2022/09/07 07:46:51;;;;;;;4.10;1.20;;;22.60;65.80;;;;;;4983775;28;20068;-62
2022/09/07 07:49:16;;;;;;;3.55;1.17;;;22.70;65.90;;;;;;4983826;28;20043;-62
2022/09/07 07:51:42;;;;;;;5.93;1.65;;;22.60;65.80;;;;;;4985583;28;20054;-63
2022/09/07 07:54:08;;;;;;;7.88;1.63;;;22.70;66.00;;;;;;4987124;28;20026;-63
2022/09/07 07:56:33;;;;;;;5.47;1.40;;;22.70;65.80;;;;;;4985865;28;20566;-63
2022/09/07 07:59:00;;;;;;;7.93;1.40;;;22.60;65.70;;;;;;4986397;28;20045;-62
2022/09/07 08:01:26;;;;;;;6.40;1.40;;;22.70;65.80;;;;;;4985424;28;20034;-62
2022/09/07 08:03:51;;;;;;;4.95;1.23;;;22.70;65.80;;;;;;4985534;28;20026;-62
2022/09/07 08:06:18;;;;;;;6.90;1.60;;;22.70;65.80;;;;;;4984527;28;20088;-63
2022/09/07 08:08:44;;;;;;;4.82;1.38;;;22.70;65.70;;;;;;4984234;28;20492;-63
2022/09/07 08:11:12;;;;;;;4.50;1.40;;;22.70;65.60;;;;;;4983795;28;20156;-62
2022/09/07 08:13:39;;;;;;;7.13;1.60;;;22.70;65.70;;;;;;4984309;28;20034;-63
2022/09/07 08:16:05;;;;;;;5.22;1.27;;;22.70;65.50;;;;;;4986134;28;20036;-62
2022/09/07 08:18:34;;;;;;;7.13;1.48;;;22.70;65.60;;;;;;4985931;28;20774;-62
2022/09/07 08:21:01;;;;;;;4.45;1.33;;;22.70;65.50;;;;;;4985984;28;20540;-63
2022/09/07 08:23:27;;;;;;;5.65;1.48;;;22.70;65.50;;;;;;4983076;28;20490;-63
2022/09/07 08:25:53;;;;;;;5.28;1.40;;;22.80;65.50;;;;;;4986374;28;20042;-63
2022/09/07 08:28:20;;;;;;;5.75;1.52;;;22.80;65.30;;;;;;4985000;28;20038;-63
2022/09/07 08:30:46;;;;;;;7.22;1.60;;;22.80;65.40;;;;;;4990331;28;20457;-63
2022/09/07 08:33:12;;;;;;;5.22;1.40;;;22.80;65.50;;;;;;4989489;28;20030;-63
2022/09/07 08:35:37;;;;;;;8.07;1.73;;;22.80;65.70;;;;;;4986524;28;20030;-63
2022/09/07 08:38:03;;;;;;;5.85;1.38;;;22.80;65.60;;;;;;4987012;28;20042;-63
2022/09/07 08:40:29;;;;;;;6.07;1.50;;;22.90;65.60;;;;;;4982176;28;20029;-63
2022/09/07 08:43:20;;;;;;;5.90;1.60;;;22.90;65.50;;;;;;4984538;28;20498;-63
2022/09/07 08:45:49;;;;;;;6.57;1.58;;;22.90;65.60;;;;;;4986329;28;20117;-63
2022/09/07 08:48:19;;;;;;;5.60;1.38;;;22.90;65.40;;;;;;4999332;28;20717;-63
2022/09/07 08:50:47;;;;;;;7.15;1.45;;;22.90;65.40;;;;;;4982389;28;20065;-63
2022/09/07 08:53:17;;;;;;;6.88;1.65;;;22.90;65.40;;;;;;4999123;28;20018;-63
2022/09/07 08:55:49;;;;;;;5.28;1.30;;;23.00;65.30;;;;;;4985822;28;20030;-62
2022/09/07 08:58:37;;;;;;;6.10;1.60;;;23.00;65.40;;;;;;4986009;28;20098;-64
2022/09/07 09:01:12;;;;;;;6.70;1.50;;;23.00;65.20;;;;;;4969107;28;20019;-63
2022/09/07 09:03:38;;;;;;;4.40;1.48;;;23.00;65.00;;;;;;4994534;28;20049;-63
2022/09/07 09:06:28;;;;;;;4.82;1.30;;;23.00;65.20;;;;;;4986169;28;20034;-65
2022/09/07 09:09:00;;;;;;;4.45;1.20;;;23.00;65.00;;;;;;4987691;28;20053;-62
2022/09/07 09:11:31;;;;;;;5.53;1.30;;;23.10;65.00;;;;;;4984934;28;20104;-63
2022/09/07 09:14:29;;;;;;;6.18;1.63;;;23.00;65.00;;;;;;4983050;28;20037;-62
2022/09/07 09:17:02;;;;;;;4.30;1.20;;;23.10;65.20;;;;;;4981834;28;20104;-63
2022/09/07 09:19:52;;;;;;;6.20;1.30;;;23.10;65.10;;;;;;4981648;28;20026;-63
2022/09/07 09:22:22;;;;;;;5.93;1.40;;;23.10;65.10;;;;;;4985413;28;20470;-62
2022/09/07 09:25:03;;;;;;;6.65;1.60;;;23.10;65.10;;;;;;4990915;28;20129;-63
2022/09/07 09:27:29;;;;;;;6.65;1.40;;;23.10;65.10;;;;;;4985223;28;20105;-64
2022/09/07 09:29:54;;;;;;;3.00;1.30;;;23.10;65.20;;;;;;4983580;28;20461;-64
2022/09/07 09:32:40;;;;;;;4.88;1.63;;;23.10;65.00;;;;;;4984287;28;20511;-64
2022/09/07 09:35:35;;;;;;;6.05;1.60;;;23.10;65.10;;;;;;4980693;28;20058;-64
2022/09/07 09:38:04;;;;;;;5.40;1.42;;;23.10;65.10;;;;;;4982615;28;20081;-63
2022/09/07 09:40:33;;;;;;;4.60;1.20;;;23.10;65.00;;;;;;4995782;28;20035;-64
2022/09/07 09:43:18;;;;;;;5.80;1.20;;;23.10;65.00;;;;;;4992090;28;20122;-64
2022/09/07 09:45:47;;;;;;;5.20;1.48;;;23.10;65.00;;;;;;4984579;28;20080;-64
2022/09/07 09:48:27;;;;;;;6.20;1.38;;;23.10;65.10;;;;;;4995508;28;20026;-64
2022/09/07 09:50:54;;;;;;;5.93;1.52;;;23.10;65.10;;;;;;4994232;28;20034;-64
2022/09/07 09:53:39;;;;;;;6.63;1.60;;;23.10;65.00;;;;;;4996016;28;20026;-64
2022/09/07 09:56:04;;;;;;;3.88;1.40;;;23.10;65.10;;;;;;4989099;28;20410;-64
2022/09/07 09:58:36;;;;;;;6.82;1.58;;;23.10;65.10;;;;;;4998756;28;20023;-65
2022/09/07 10:01:06;;;;;;;8.73;1.50;;;23.10;65.20;;;;;;4986577;28;20396;-64
2022/09/07 10:03:33;;;;;;;5.65;1.10;;;23.10;65.10;;;;;;4987714;28;20042;-65
2022/09/07 10:06:03;;;;;;;7.43;1.63;;;23.10;65.10;;;;;;4988249;28;20113;-65
2022/09/07 10:08:30;;;;;;;7.25;1.65;;;23.10;65.00;;;;;;5002067;28;20109;-65
2022/09/07 10:10:59;;;;;;;5.68;1.50;;;23.10;65.00;;;;;;4988466;28;20041;-67
2022/09/07 10:13:36;;;;;;;9.38;1.75;;;23.10;64.90;;;;;;4987736;28;20409;-67
2022/09/07 10:16:06;;;;;;;7.30;1.60;;;23.20;64.80;;;;;;4999833;28;20034;-65
2022/09/07 10:18:36;;;;;;;8.57;1.80;;;23.20;64.80;;;;;;5001036;28;20403;-65
2022/09/07 10:21:25;;;;;;;7.05;1.45;;;23.20;64.80;;;;;;4987491;28;21589;-66
2022/09/07 10:24:05;;;;;;;7.60;1.80;;;23.20;64.80;;;;;;5009284;28;20154;-63
2022/09/07 10:26:35;;;;;;;6.10;1.48;;;23.20;64.70;;;;;;5000579;28;20104;-65
2022/09/07 10:29:34;;;;;;;7.38;1.55;;;23.20;64.70;;;;;;4985392;28;20030;-65
2022/09/07 10:32:12;;;;;;;5.72;1.50;;;23.20;64.60;;;;;;4983549;28;20510;-66
2022/09/07 10:34:49;;;;;;;7.55;1.77;;;23.20;64.60;;;;;;4980690;28;20044;-66
2022/09/07 10:37:42;;;;;;;6.43;1.50;;;23.20;64.60;;;;;;4978986;28;20030;-66
2022/09/07 10:40:20;;;;;;;6.10;1.70;;;23.20;64.50;;;;;;4971291;28;20045;-65
2022/09/07 10:43:09;;;;;;;6.47;1.60;;;23.30;64.50;;;;;;4969258;28;20084;-63
2022/09/07 10:45:40;;;;;;;7.63;1.75;;;23.30;64.40;;;;;;4969145;28;20042;-63
2022/09/07 10:48:33;;;;;;;6.28;1.55;;;23.30;64.30;;;;;;4979494;28;20046;-64
2022/09/07 10:51:03;;;;;;;5.10;1.30;;;23.30;64.30;;;;;;4979285;28;20045;-63
2022/09/07 10:53:50;;;;;;;7.10;1.55;;;23.30;64.10;;;;;;4968870;28;20485;-63
2022/09/07 10:57:11;;;;;;;6.25;1.40;;;23.30;64.00;;;;;;4966521;28;20034;-63
2022/09/07 11:00:02;;;;;;;6.97;1.67;;;23.40;63.90;;;;;;4871550;29;20144;-63
2022/09/07 11:02:49;;;;;;;7.60;1.52;;;23.40;63.80;;;;;;4870454;29;20556;-63
2022/09/07 11:05:15;;;;;;;6.80;1.67;;;23.50;63.80;;;;;;4854148;29;20053;-64
2022/09/07 11:07:46;;;;;;;6.22;1.42;;;23.50;63.70;;;;;;4862986;29;20048;-63
2022/09/07 11:10:22;;;;;;;7.60;1.80;;;23.50;63.70;;;;;;4853627;29;20428;-63
2022/09/07 11:12:48;;;;;;;7.53;1.52;;;23.50;63.70;;;;;;4854154;29;20041;-63
2022/09/07 11:15:43;;;;;;;8.10;1.70;;;23.50;63.60;;;;;;4853335;29;20037;-64
2022/09/07 11:18:16;;;;;;;6.97;1.92;;;23.50;63.60;;;;;;4853502;29;20527;-63
2022/09/07 11:20:57;;;;;;;6.75;1.60;;;23.50;63.40;;;;;;4833886;29;20173;-64
2022/09/07 11:23:58;;;;;;;7.72;1.75;;;23.50;63.30;;;;;;4823470;29;20543;-63
2022/09/07 11:26:36;;;;;;;6.22;1.63;;;23.60;63.40;;;;;;4850931;29;20065;-63
2022/09/07 11:29:04;;;;;;;6.63;1.52;;;23.60;63.20;;;;;;4853089;29;20045;-63
2022/09/07 11:31:38;;;;;;;7.55;1.70;;;23.60;63.30;;;;;;4853798;29;20102;-63
2022/09/07 11:34:09;;;;;;;6.80;1.45;;;23.50;63.20;;;;;;4895116;29;20626;-63
2022/09/07 11:36:43;;;;;;;6.47;1.40;;;23.60;63.40;;;;;;4929493;28;21852;-64
2022/09/07 11:39:21;;;;;;;9.45;1.88;;;23.50;63.30;;;;;;4992046;28;20030;-64
2022/09/07 11:42:01;;;;;;;6.32;1.60;;;23.50;63.30;;;;;;4985071;28;20034;-64
2022/09/07 11:45:01;;;;;;;5.93;1.50;;;23.60;63.10;;;;;;4995630;28;20390;-64
2022/09/07 11:47:45;;;;;;;6.40;1.60;;;23.60;63.40;;;;;;4948781;28;20034;-64
2022/09/07 11:50:15;;;;;;;8.65;2.00;;;23.50;63.30;;;;;;4929799;28;20054;-64
2022/09/07 11:52:43;;;;;;;6.55;1.88;;;23.50;63.30;;;;;;4958413;28;20078;-63
2022/09/07 11:55:24;;;;;;;6.63;1.70;;;23.50;63.30;;;;;;4944106;28;20046;-64
2022/09/07 11:57:57;;;;;;;8.45;1.60;;;23.60;63.40;;;;;;4961016;28;20039;-64
2022/09/07 12:00:26;;;;;;;9.25;2.03;;;23.50;63.30;;;;;;4960137;28;20042;-64
2022/09/07 12:03:14;;;;;;;7.75;1.60;;;23.50;63.30;;;;;;4931361;28;20467;-63
2022/09/07 12:05:49;;;;;;;6.07;1.55;;;23.50;63.40;;;;;;4961576;28;20421;-64
2022/09/07 12:08:20;;;;;;;9.63;1.85;;;23.50;63.30;;;;;;4965912;28;20086;-63
2022/09/07 12:11:04;;;;;;;7.35;1.70;;;23.50;63.30;;;;;;4959039;28;20511;-64
2022/09/07 12:14:02;;;;;;;6.85;1.65;;;23.60;63.40;;;;;;4951574;28;20035;-63
2022/09/07 12:16:36;;;;;;;7.93;1.98;;;23.50;63.30;;;;;;4950684;28;20054;-64
2022/09/07 12:19:18;;;;;;;8.63;1.90;;;23.50;63.30;;;;;;4973874;28;20038;-64
2022/09/07 12:21:52;;;;;;;8.23;1.83;;;23.50;63.30;;;;;;4962163;28;20833;-64
2022/09/07 12:24:39;;;;;;;5.35;1.50;;;23.50;63.30;;;;;;4983087;28;20055;-64
2022/09/07 12:27:20;;;;;;;7.10;1.73;;;23.50;63.40;;;;;;4984137;28;20038;-64
2022/09/07 12:29:47;;;;;;;6.30;1.50;;;23.50;63.60;;;;;;4983516;28;20045;-64
2022/09/07 12:32:13;;;;;;;8.07;1.70;;;23.50;63.60;;;;;;4984250;28;20372;-63
2022/09/07 12:34:51;;;;;;;9.10;2.08;;;23.50;63.70;;;;;;4981717;28;20034;-64
2022/09/07 12:37:33;;;;;;;6.68;1.60;;;23.50;63.60;;;;;;4983565;28;20033;-64
2022/09/07 12:40:33;;;;;;;9.70;1.60;;;23.50;63.80;;;;;;4982317;28;20031;-62
2022/09/07 12:43:14;;;;;;;7.18;1.50;;;23.50;63.80;;;;;;4985442;28;20049;-58
2022/09/07 12:45:43;;;;;;;6.97;1.83;;;23.50;63.80;;;;;;4985578;28;20506;-58
2022/09/07 12:48:15;;;;;;;8.50;1.50;;;23.50;64.00;;;;;;4982701;28;20034;-58
2022/09/07 12:51:05;;;;;;;9.27;1.75;;;23.50;64.00;;;;;;4981068;28;20046;-58
2022/09/07 12:54:06;;;;;;;11.23;1.75;;;23.40;64.00;;;;;;4984054;28;20501;-57
2022/09/07 12:56:44;;;;;;;5.80;1.50;;;23.40;64.10;;;;;;4980085;28;20039;-58
2022/09/07 12:59:29;;;;;;;8.82;1.48;;;23.50;64.10;;;;;;4994364;28;20472;-58
2022/09/07 13:02:01;;;;;;;8.20;1.70;;;23.50;64.10;;;;;;4995117;28;20076;-58
2022/09/07 13:04:48;;;;;;;7.53;1.80;;;23.50;64.00;;;;;;4985090;28;20283;-58
2022/09/07 13:07:49;;;;;;;5.72;1.38;;;23.50;64.10;;;;;;4994538;28;20031;-58
2022/09/07 13:10:38;;;;;;;5.75;1.50;;;23.50;64.00;;;;;;4985579;28;20041;-58